Time;durP1;ratioP1;P1;durP2;ratioP2;P2;SDS_P1;SDS_P2;PMS_P1;PMS_P2;Temp;Humidity;BMP_temperature;BMP_pressure;BME280_temperature;BME280_humidity;BME280_pressure;Samples;Min_cycle;Max_cycle;Signal;HPM_P1;HPM_P2
2024/04/25 00:00:20;;;;;;;17.65;14.10;;;7.90;93.20;;;;;;5413451;26;20004;-70
2024/04/25 00:03:06;;;;;;;16.88;13.70;;;7.90;93.20;;;;;;5407963;26;20011;-69
2024/04/25 00:05:52;;;;;;;14.85;12.88;;;7.90;93.30;;;;;;5414939;26;22340;-69
2024/04/25 00:08:38;;;;;;;18.13;13.43;;;7.90;93.20;;;;;;5414772;26;19995;-70
2024/04/25 00:11:26;;;;;;;14.90;12.73;;;7.80;93.20;;;;;;5388908;26;20002;-69
2024/04/25 00:14:12;;;;;;;15.85;12.57;;;7.80;93.30;;;;;;5416523;26;20003;-68
2024/04/25 00:16:57;;;;;;;16.27;12.68;;;7.80;93.30;;;;;;5413212;26;19987;-69
2024/04/25 00:19:43;;;;;;;17.35;12.98;;;7.80;93.40;;;;;;5399642;26;20513;-69
2024/04/25 00:22:29;;;;;;;17.63;13.05;;;7.70;93.40;;;;;;5420135;26;20007;-70
2024/04/25 00:25:15;;;;;;;14.95;13.05;;;7.80;93.50;;;;;;5380945;26;20454;-70
2024/04/25 00:28:01;;;;;;;15.93;13.18;;;7.70;93.50;;;;;;5410184;26;20450;-70
2024/04/25 00:30:49;;;;;;;17.05;13.93;;;7.70;93.50;;;;;;5433096;26;19996;-69
2024/04/25 00:33:35;;;;;;;16.58;12.88;;;7.70;93.60;;;;;;5395653;26;20002;-70
2024/04/25 00:36:21;;;;;;;16.45;12.77;;;7.70;93.60;;;;;;5440851;26;19995;-70
2024/04/25 00:39:07;;;;;;;15.73;13.35;;;7.70;93.70;;;;;;5411823;26;20447;-70
2024/04/25 00:41:53;;;;;;;16.95;13.57;;;7.70;93.70;;;;;;5414000;26;19999;-70
2024/04/25 00:44:39;;;;;;;15.57;12.80;;;7.70;93.70;;;;;;5429890;26;20005;-72
2024/04/25 00:47:26;;;;;;;15.70;12.23;;;7.70;93.70;;;;;;5402276;26;20071;-71
2024/04/25 00:50:12;;;;;;;16.42;12.90;;;7.60;93.70;;;;;;5374105;26;20012;-72
2024/04/25 00:52:59;;;;;;;15.23;12.68;;;7.60;93.70;;;;;;5377808;26;19996;-72
2024/04/25 00:55:47;;;;;;;16.05;12.95;;;7.60;93.70;;;;;;5424394;26;19999;-72
2024/04/25 00:58:35;;;;;;;16.20;12.77;;;7.50;93.70;;;;;;5410792;26;20461;-71
2024/04/25 01:01:22;;;;;;;16.05;14.00;;;7.50;93.80;;;;;;5413928;26;19999;-72
2024/04/25 01:04:10;;;;;;;15.27;13.02;;;7.50;93.80;;;;;;5413685;26;20044;-71
2024/04/25 01:06:57;;;;;;;16.00;11.82;;;7.50;93.80;;;;;;5405532;26;20012;-72
2024/04/25 01:09:43;;;;;;;15.05;12.50;;;7.50;93.80;;;;;;5417595;26;19995;-72
2024/04/25 01:12:31;;;;;;;16.42;11.70;;;7.50;93.80;;;;;;5409541;26;20474;-69
2024/04/25 01:15:17;;;;;;;14.75;11.90;;;7.50;93.80;;;;;;5397760;26;20342;-69
2024/04/25 01:18:03;;;;;;;14.27;12.43;;;7.50;93.80;;;;;;5411520;26;20019;-69
2024/04/25 01:20:49;;;;;;;15.32;12.88;;;7.50;93.80;;;;;;5435300;26;20563;-69
2024/04/25 01:23:38;;;;;;;15.02;12.02;;;7.50;93.80;;;;;;5415286;26;20470;-69
2024/04/25 01:26:24;;;;;;;14.60;12.15;;;7.50;93.90;;;;;;5417820;26;19999;-69
2024/04/25 01:29:14;;;;;;;14.98;13.23;;;7.50;93.90;;;;;;5391956;26;20073;-68
2024/04/25 01:32:02;;;;;;;18.33;11.88;;;7.50;93.90;;;;;;5394415;26;20006;-69
2024/04/25 01:34:49;;;;;;;14.75;12.45;;;7.50;93.90;;;;;;5413398;26;20359;-70
2024/04/25 01:37:35;;;;;;;14.90;12.43;;;7.50;93.90;;;;;;5402344;26;19999;-70
2024/04/25 01:40:21;;;;;;;14.90;11.85;;;7.40;93.80;;;;;;5427813;26;20017;-71
2024/04/25 01:43:08;;;;;;;15.93;11.88;;;7.40;93.80;;;;;;5410493;26;20449;-71
2024/04/25 01:45:53;;;;;;;16.45;13.43;;;7.40;93.90;;;;;;5431811;26;19999;-71
2024/04/25 01:48:41;;;;;;;15.20;12.10;;;7.40;93.90;;;;;;5403181;26;19991;-73
2024/04/25 01:51:31;;;;;;;16.17;11.85;;;7.40;93.80;;;;;;5390331;26;19999;-73
2024/04/25 01:54:16;;;;;;;16.88;12.57;;;7.30;93.80;;;;;;5371967;26;19999;-68
2024/04/25 01:57:02;;;;;;;15.48;12.40;;;7.30;93.90;;;;;;5403704;26;20012;-70
2024/04/25 01:59:48;;;;;;;20.05;12.45;;;7.20;93.90;;;;;;5409685;26;20008;-70
2024/04/25 02:02:34;;;;;;;15.07;11.02;;;7.20;93.90;;;;;;5405009;26;20011;-70
2024/04/25 02:05:20;;;;;;;16.42;12.00;;;7.10;93.90;;;;;;5364424;26;19992;-70
2024/04/25 02:08:06;;;;;;;15.35;11.88;;;7.10;93.90;;;;;;5404286;26;20112;-70
2024/04/25 02:10:52;;;;;;;15.93;12.05;;;7.10;93.90;;;;;;5416823;26;20447;-69
2024/04/25 02:13:38;;;;;;;15.35;11.68;;;7.00;93.90;;;;;;5380989;26;20444;-69
2024/04/25 02:16:24;;;;;;;15.68;11.27;;;7.00;94.00;;;;;;5388660;26;20011;-69
2024/04/25 02:19:10;;;;;;;16.33;11.27;;;7.00;94.00;;;;;;5413511;26;19995;-69
2024/04/25 02:25:16;;;;;;;16.42;11.45;;;7.00;94.00;;;;;;5414443;26;20039;-68
2024/04/25 02:28:02;;;;;;;14.02;10.25;;;6.90;94.00;;;;;;5390731;26;20350;-68
2024/04/25 02:30:48;;;;;;;14.85;11.20;;;6.80;94.00;;;;;;5406690;26;20534;-71
2024/04/25 02:33:34;;;;;;;14.73;10.20;;;6.80;94.10;;;;;;5411309;26;20068;-69
2024/04/25 02:36:20;;;;;;;10.73;8.68;;;6.80;94.10;;;;;;5387056;26;20004;-69
2024/04/25 02:39:09;;;;;;;12.85;9.85;;;6.80;94.10;;;;;;5415587;26;20011;-69
2024/04/25 02:41:55;;;;;;;12.52;9.10;;;6.80;94.20;;;;;;5405983;26;19999;-69
2024/04/25 02:44:41;;;;;;;12.38;9.73;;;6.70;94.20;;;;;;5376788;26;20011;-69
2024/04/25 02:47:27;;;;;;;13.65;8.77;;;6.80;94.30;;;;;;5412549;26;19996;-69
2024/04/25 02:50:13;;;;;;;12.07;9.02;;;6.80;94.30;;;;;;5431129;26;20370;-70
2024/04/25 02:52:59;;;;;;;10.52;8.07;;;6.70;94.30;;;;;;5418430;26;20069;-70
2024/04/25 02:55:45;;;;;;;10.30;8.65;;;6.70;94.30;;;;;;5400518;26;20011;-70
2024/04/25 02:58:32;;;;;;;11.68;8.27;;;6.80;94.40;;;;;;5382954;26;20000;-70
2024/04/25 03:01:18;;;;;;;10.68;7.72;;;6.80;94.40;;;;;;5413392;26;20347;-69
2024/04/25 03:04:04;;;;;;;9.55;7.30;;;6.80;94.50;;;;;;5419935;26;20488;-69
2024/04/25 03:06:50;;;;;;;9.48;7.25;;;6.80;94.50;;;;;;5416150;26;19996;-69
2024/04/25 03:09:36;;;;;;;8.00;6.97;;;6.80;94.50;;;;;;5417582;26;20010;-69
2024/04/25 03:12:22;;;;;;;9.30;7.22;;;6.80;94.50;;;;;;5410202;26;19999;-69
2024/04/25 03:15:09;;;;;;;10.05;7.63;;;6.80;94.50;;;;;;5380883;26;20393;-69
2024/04/25 03:17:54;;;;;;;9.98;6.43;;;6.80;94.50;;;;;;5417982;26;19992;-69
2024/04/25 03:20:40;;;;;;;10.52;7.22;;;6.90;94.50;;;;;;5415638;26;20010;-68
2024/04/25 03:23:26;;;;;;;10.68;6.22;;;6.80;94.50;;;;;;5383281;26;20486;-69
2024/04/25 03:26:12;;;;;;;8.05;6.30;;;6.90;94.50;;;;;;5414204;26;20455;-69
2024/04/25 03:28:58;;;;;;;9.48;7.05;;;6.90;94.50;;;;;;5413452;26;20010;-69
2024/04/25 03:31:44;;;;;;;8.90;7.10;;;6.90;94.50;;;;;;5404165;26;20097;-68
2024/04/25 03:34:30;;;;;;;7.55;5.93;;;6.90;94.50;;;;;;5407602;26;20014;-69
2024/04/25 03:37:16;;;;;;;8.35;6.43;;;6.90;94.70;;;;;;5411951;26;20444;-68
2024/04/25 03:40:03;;;;;;;10.63;7.55;;;6.90;94.50;;;;;;5382949;26;20028;-68
2024/04/25 03:42:49;;;;;;;9.25;6.72;;;6.90;94.50;;;;;;5406501;26;20003;-69
2024/04/25 03:45:35;;;;;;;9.48;7.57;;;6.90;94.50;;;;;;5406833;26;20354;-68
2024/04/25 03:48:21;;;;;;;15.27;7.68;;;6.90;94.50;;;;;;5390838;26;20074;-68
2024/04/25 03:51:07;;;;;;;12.98;7.70;;;6.90;94.50;;;;;;5414692;26;20003;-67
2024/04/25 03:53:53;;;;;;;8.55;6.97;;;6.90;94.50;;;;;;5405120;26;20441;-67
2024/04/25 03:56:39;;;;;;;8.40;6.90;;;7.00;94.50;;;;;;5364342;26;19996;-67
2024/04/25 03:59:26;;;;;;;10.43;6.75;;;7.00;94.50;;;;;;5406000;26;19999;-67
2024/04/25 04:02:12;;;;;;;9.65;7.55;;;7.00;94.60;;;;;;5406004;26;20000;-69
2024/04/25 04:04:58;;;;;;;9.85;6.85;;;7.00;94.50;;;;;;5413660;26;20000;-68
2024/04/25 04:07:44;;;;;;;9.27;7.32;;;7.00;94.50;;;;;;5414686;26;20000;-69
2024/04/25 04:10:30;;;;;;;8.85;6.65;;;7.00;94.50;;;;;;5412333;26;20003;-68
2024/04/25 04:13:16;;;;;;;9.65;6.25;;;7.00;94.50;;;;;;5418065;26;20660;-68
2024/04/25 04:16:03;;;;;;;7.95;5.72;;;7.00;94.50;;;;;;5423126;26;20007;-68
2024/04/25 04:18:48;;;;;;;8.20;6.07;;;7.00;94.50;;;;;;5388284;26;19999;-68
2024/04/25 04:21:34;;;;;;;8.48;6.03;;;7.00;94.70;;;;;;5392352;26;20497;-68
2024/04/25 04:24:20;;;;;;;7.53;5.82;;;7.10;94.50;;;;;;5415114;26;20459;-68
2024/04/25 04:27:06;;;;;;;7.47;6.15;;;7.10;94.50;;;;;;5411913;26;20018;-68
2024/04/25 04:29:52;;;;;;;9.75;7.15;;;7.10;94.50;;;;;;5414846;26;20033;-69
2024/04/25 04:32:38;;;;;;;8.60;6.18;;;7.20;94.50;;;;;;5416069;26;20020;-69
2024/04/25 04:35:24;;;;;;;8.60;5.95;;;7.20;94.50;;;;;;5403753;26;20033;-70
2024/04/25 04:38:10;;;;;;;8.50;6.70;;;7.20;94.50;;;;;;5408176;26;20003;-70
2024/04/25 04:40:56;;;;;;;8.63;6.43;;;7.20;94.50;;;;;;5390443;26;20467;-70
2024/04/25 04:43:42;;;;;;;9.35;6.38;;;7.30;94.50;;;;;;5415229;26;20066;-70
2024/04/25 04:46:28;;;;;;;8.10;5.88;;;7.30;94.50;;;;;;5407873;26;20073;-70
2024/04/25 04:49:14;;;;;;;9.60;7.32;;;7.30;94.50;;;;;;5407804;26;20000;-70
2024/04/25 04:51:59;;;;;;;9.77;7.20;;;7.20;94.50;;;;;;5403195;26;20000;-70
2024/04/25 04:54:46;;;;;;;11.38;7.40;;;7.30;94.50;;;;;;5412090;26;20006;-70
2024/04/25 04:57:31;;;;;;;9.05;6.78;;;7.30;94.40;;;;;;5406681;26;19999;-70
2024/04/25 05:00:17;;;;;;;13.15;7.70;;;7.30;94.40;;;;;;5402947;26;20010;-70
2024/04/25 05:03:06;;;;;;;11.63;8.10;;;7.30;94.40;;;;;;5427330;26;20003;-71
2024/04/25 05:05:52;;;;;;;11.13;8.02;;;7.30;94.40;;;;;;5413707;26;19991;-70
2024/04/25 05:08:38;;;;;;;11.60;7.50;;;7.30;94.40;;;;;;5379639;26;20008;-70
2024/04/25 05:11:24;;;;;;;11.68;7.88;;;7.40;94.40;;;;;;5412547;26;20427;-70
2024/04/25 05:14:10;;;;;;;11.23;7.85;;;7.40;94.40;;;;;;5412258;26;20010;-70
2024/04/25 05:16:56;;;;;;;13.10;8.18;;;7.50;94.40;;;;;;5412021;26;19999;-70
2024/04/25 05:19:41;;;;;;;12.80;8.10;;;7.50;94.40;;;;;;5409029;26;20018;-70
2024/04/25 05:22:27;;;;;;;13.68;8.10;;;7.60;94.40;;;;;;5431698;26;20435;-70
2024/04/25 05:25:13;;;;;;;11.45;8.15;;;7.60;94.30;;;;;;5412519;26;19999;-70
2024/04/25 05:27:59;;;;;;;9.73;6.95;;;7.60;94.30;;;;;;5419445;26;20455;-70
2024/04/25 05:30:45;;;;;;;9.48;7.45;;;7.70;94.40;;;;;;5420048;26;20019;-70
2024/04/25 05:33:31;;;;;;;9.35;8.02;;;7.80;94.40;;;;;;5395546;26;20004;-70
2024/04/25 05:36:17;;;;;;;11.50;7.45;;;7.80;94.40;;;;;;5404439;26;20016;-70
2024/04/25 05:39:03;;;;;;;12.63;8.68;;;8.00;94.40;;;;;;5403674;26;20038;-69
2024/04/25 05:41:49;;;;;;;12.65;7.15;;;8.00;94.30;;;;;;5412144;26;20032;-71
2024/04/25 05:44:35;;;;;;;10.60;8.18;;;8.10;94.20;;;;;;5386250;26;19988;-71
2024/04/25 05:47:21;;;;;;;13.57;7.97;;;8.10;94.10;;;;;;5442286;26;20526;-71
2024/04/25 05:50:07;;;;;;;12.32;7.35;;;8.20;94.10;;;;;;5422072;26;20012;-71
2024/04/25 05:52:53;;;;;;;11.32;7.90;;;8.20;94.00;;;;;;5379711;26;20015;-70
2024/04/25 05:55:39;;;;;;;9.85;7.00;;;8.30;94.10;;;;;;5393708;26;20001;-70
2024/04/25 05:58:25;;;;;;;10.18;7.30;;;8.40;94.10;;;;;;5401876;26;20004;-70
2024/04/25 06:01:16;;;;;;;9.88;7.78;;;8.50;94.00;;;;;;5409373;26;20159;-69
2024/04/25 06:04:02;;;;;;;10.45;7.90;;;8.60;93.90;;;;;;5396253;26;20015;-69
2024/04/25 06:06:47;;;;;;;10.00;7.07;;;8.60;93.80;;;;;;5388218;26;20012;-69
2024/04/25 06:09:33;;;;;;;10.10;7.15;;;8.70;93.80;;;;;;5425661;26;19994;-70
2024/04/25 06:12:19;;;;;;;12.60;7.50;;;8.80;93.70;;;;;;5432847;26;20580;-69
2024/04/25 06:15:05;;;;;;;10.30;7.82;;;8.80;93.60;;;;;;5414667;26;20008;-69
2024/04/25 06:17:53;;;;;;;11.93;8.10;;;8.90;93.50;;;;;;5416480;26;19996;-68
2024/04/25 06:20:39;;;;;;;9.18;7.10;;;8.90;93.40;;;;;;5392125;26;20014;-67
2024/04/25 06:23:25;;;;;;;12.55;8.10;;;9.00;93.40;;;;;;5407511;26;19995;-66
2024/04/25 06:26:11;;;;;;;10.60;7.93;;;9.00;93.30;;;;;;5402776;26;19996;-66
2024/04/25 06:28:57;;;;;;;15.38;7.03;;;9.10;93.30;;;;;;5417723;26;20000;-65
2024/04/25 06:31:44;;;;;;;9.65;7.75;;;9.10;93.20;;;;;;5415668;26;20011;-66
2024/04/25 06:34:30;;;;;;;9.85;7.25;;;9.20;93.20;;;;;;5413433;26;20010;-65
2024/04/25 06:37:19;;;;;;;9.10;6.63;;;9.30;93.20;;;;;;5416479;26;20363;-65
2024/04/25 06:40:06;;;;;;;10.98;7.18;;;9.30;93.10;;;;;;5389689;26;20014;-65
2024/04/25 06:42:51;;;;;;;12.80;6.75;;;9.40;93.30;;;;;;5381754;26;20006;-65
2024/04/25 06:45:41;;;;;;;9.18;7.15;;;9.40;93.00;;;;;;5415650;26;20450;-65
2024/04/25 06:48:27;;;;;;;10.27;7.18;;;9.50;93.00;;;;;;5410662;26;20358;-66
2024/04/25 06:51:18;;;;;;;8.95;6.50;;;9.60;93.00;;;;;;5447253;26;20009;-66
2024/04/25 06:54:04;;;;;;;8.63;6.90;;;9.70;93.10;;;;;;5403349;26;20358;-65
2024/04/25 06:56:50;;;;;;;9.30;6.75;;;9.80;93.00;;;;;;5414340;26;20003;-65
2024/04/25 06:59:36;;;;;;;9.98;7.05;;;9.80;92.80;;;;;;5414545;26;20039;-65
2024/04/25 07:02:22;;;;;;;9.25;6.70;;;9.90;92.70;;;;;;5448681;26;20058;-65
2024/04/25 07:05:09;;;;;;;10.70;6.70;;;10.00;92.70;;;;;;5451652;26;19999;-65
2024/04/25 07:07:56;;;;;;;11.60;6.65;;;10.00;92.60;;;;;;5438609;26;20007;-65
2024/04/25 07:10:42;;;;;;;10.73;7.50;;;10.10;92.60;;;;;;5434925;26;20018;-65
2024/04/25 07:13:28;;;;;;;10.23;7.10;;;10.10;92.40;;;;;;5412819;26;19999;-65
2024/04/25 07:16:14;;;;;;;9.05;6.85;;;10.10;92.50;;;;;;5413059;26;19995;-64
2024/04/25 07:19:00;;;;;;;9.13;6.80;;;10.20;92.60;;;;;;5423132;26;20478;-65
2024/04/25 07:21:46;;;;;;;7.88;6.15;;;10.20;92.50;;;;;;5412099;26;20471;-69
2024/04/25 07:24:32;;;;;;;6.55;5.53;;;10.30;92.40;;;;;;5416521;26;20007;-68
2024/04/25 07:27:18;;;;;;;5.90;4.65;;;10.30;92.30;;;;;;5414015;26;20003;-69
2024/04/25 07:30:05;;;;;;;8.43;5.53;;;10.50;92.30;;;;;;5387331;26;20011;-69
2024/04/25 07:32:51;;;;;;;7.00;5.20;;;10.50;92.10;;;;;;5423928;26;20472;-69
2024/04/25 07:35:36;;;;;;;7.43;5.30;;;10.60;92.10;;;;;;5439093;26;19999;-69
2024/04/25 07:38:22;;;;;;;6.70;5.25;;;10.70;92.10;;;;;;5408852;26;20018;-69
2024/04/25 07:41:08;;;;;;;9.27;5.90;;;10.70;91.90;;;;;;5422974;26;20320;-69
2024/04/25 07:43:54;;;;;;;6.97;5.25;;;10.80;91.80;;;;;;5393223;26;20331;-69
2024/04/25 07:46:41;;;;;;;6.80;5.05;;;10.80;91.80;;;;;;5406375;26;20088;-69
2024/04/25 07:49:27;;;;;;;8.85;6.55;;;10.80;91.70;;;;;;5424946;26;20069;-69
2024/04/25 07:52:13;;;;;;;7.75;5.95;;;10.90;91.70;;;;;;5425080;26;20343;-69
2024/04/25 07:55:00;;;;;;;7.68;5.45;;;10.90;91.60;;;;;;5409873;26;20019;-69
2024/04/25 07:57:46;;;;;;;7.97;5.72;;;10.90;91.60;;;;;;5403614;26;20472;-69
2024/04/25 08:00:32;;;;;;;7.40;5.50;;;10.90;91.50;;;;;;5403433;26;20019;-68
2024/04/25 08:03:18;;;;;;;7.32;5.07;;;11.00;91.70;;;;;;5401824;26;20010;-66
2024/04/25 08:06:04;;;;;;;8.05;5.88;;;11.00;91.40;;;;;;5447783;26;20002;-69
2024/04/25 08:08:50;;;;;;;8.02;6.13;;;11.00;91.40;;;;;;5437594;26;20470;-68
2024/04/25 08:11:36;;;;;;;7.88;6.20;;;11.10;91.40;;;;;;5382731;26;20602;-66
2024/04/25 08:14:22;;;;;;;8.30;6.20;;;11.10;91.30;;;;;;5385353;26;20014;-70
2024/04/25 08:17:08;;;;;;;9.23;6.15;;;11.10;91.30;;;;;;5398362;26;20504;-68
2024/04/25 08:19:54;;;;;;;8.57;5.35;;;11.10;91.20;;;;;;5396652;26;20014;-68
2024/04/25 08:22:40;;;;;;;7.22;4.95;;;11.10;91.20;;;;;;5410227;26;20317;-69
2024/04/25 08:25:26;;;;;;;7.15;5.30;;;11.20;91.30;;;;;;5414953;26;20053;-69
2024/04/25 08:28:12;;;;;;;6.68;5.43;;;11.30;91.20;;;;;;5406079;26;20498;-68
2024/04/25 08:30:58;;;;;;;6.88;5.07;;;11.40;91.10;;;;;;5408496;26;20076;-71
2024/04/25 08:33:44;;;;;;;8.45;5.10;;;11.40;90.90;;;;;;5436768;26;20060;-70
2024/04/25 08:36:30;;;;;;;6.88;5.53;;;11.50;90.80;;;;;;5414469;26;20010;-70
2024/04/25 08:39:16;;;;;;;8.77;5.40;;;11.50;90.70;;;;;;5444735;26;20454;-68
2024/04/25 08:42:06;;;;;;;7.25;5.43;;;11.50;90.60;;;;;;5389715;26;19991;-70
2024/04/25 08:44:53;;;;;;;7.78;5.82;;;11.50;90.50;;;;;;5375828;26;20493;-70
2024/04/25 08:47:40;;;;;;;7.60;5.18;;;11.60;90.50;;;;;;5428607;26;20268;-70
2024/04/25 08:50:29;;;;;;;6.82;5.10;;;11.60;90.50;;;;;;5381290;26;20081;-71
2024/04/25 08:53:15;;;;;;;8.13;5.65;;;11.70;90.50;;;;;;5369276;26;20088;-70
2024/04/25 08:56:02;;;;;;;6.20;4.70;;;11.80;90.50;;;;;;5380350;26;19999;-70
2024/04/25 08:58:48;;;;;;;6.60;5.22;;;11.90;90.50;;;;;;5413541;26;20385;-70
2024/04/25 09:01:37;;;;;;;5.97;4.78;;;12.00;90.40;;;;;;5395561;26;19999;-71
2024/04/25 09:04:26;;;;;;;7.65;4.82;;;12.00;90.20;;;;;;5353630;26;20003;-69
2024/04/25 09:07:12;;;;;;;4.53;3.67;;;12.20;90.10;;;;;;5389481;26;19996;-70
2024/04/25 09:09:58;;;;;;;6.47;3.72;;;12.40;90.00;;;;;;5423608;26;19999;-69
2024/04/25 09:12:45;;;;;;;4.15;3.30;;;12.60;89.70;;;;;;5422282;26;20011;-69
2024/04/25 09:15:31;;;;;;;5.88;3.58;;;12.70;89.10;;;;;;5410876;26;20435;-66
2024/04/25 09:18:17;;;;;;;4.03;3.63;;;12.80;88.80;;;;;;5422699;26;20136;-66
2024/04/25 09:21:03;;;;;;;4.38;3.60;;;12.90;88.10;;;;;;5449526;26;20018;-66
2024/04/25 09:23:49;;;;;;;5.82;3.78;;;12.90;87.40;;;;;;5420080;26;20081;-66
2024/04/25 09:26:35;;;;;;;5.78;3.35;;;13.00;87.40;;;;;;5403487;26;19999;-67
2024/04/25 09:29:21;;;;;;;4.88;3.65;;;13.00;87.10;;;;;;5386009;26;20073;-67
2024/04/25 09:32:15;;;;;;;4.95;3.45;;;13.00;86.80;;;;;;5412433;26;19998;-66
2024/04/25 09:35:01;;;;;;;4.50;3.40;;;13.10;86.80;;;;;;5388862;26;20003;-67
2024/04/25 09:37:47;;;;;;;4.90;3.40;;;13.00;86.40;;;;;;5408569;26;20397;-67
2024/04/25 09:40:33;;;;;;;5.20;3.65;;;13.00;86.30;;;;;;5416590;26;19995;-67
2024/04/25 09:43:20;;;;;;;4.97;3.53;;;12.90;86.10;;;;;;5416146;26;20018;-69
2024/04/25 09:46:12;;;;;;;5.50;3.78;;;12.90;86.20;;;;;;5418111;26;20409;-72
2024/04/25 09:49:03;;;;;;;9.45;3.90;;;12.80;86.00;;;;;;5389276;26;20057;-70
2024/04/25 09:52:16;;;;;;;4.10;3.30;;;12.80;86.00;;;;;;5384673;26;20001;-69
2024/04/25 09:55:04;;;;;;;5.82;4.10;;;12.80;85.90;;;;;;5395666;26;20041;-67
2024/04/25 09:57:53;;;;;;;4.68;3.50;;;12.70;86.20;;;;;;5421968;26;19999;-67
2024/04/25 10:00:40;;;;;;;3.95;3.15;;;12.70;86.10;;;;;;5390834;26;20447;-67
2024/04/25 10:03:26;;;;;;;5.15;3.25;;;12.70;86.10;;;;;;5417168;26;20423;-67
2024/04/25 10:06:13;;;;;;;6.40;3.67;;;12.70;86.20;;;;;;5417179;26;20446;-67
2024/04/25 10:08:59;;;;;;;4.90;3.83;;;12.80;86.20;;;;;;5400130;26;20015;-67
2024/04/25 10:11:49;;;;;;;3.58;2.75;;;12.80;86.20;;;;;;5389607;26;20446;-67
2024/04/25 10:14:35;;;;;;;4.20;2.85;;;12.90;86.30;;;;;;5416071;26;19996;-68
2024/04/25 10:17:25;;;;;;;3.92;2.63;;;12.90;86.10;;;;;;5403983;26;21188;-67
2024/04/25 10:20:20;;;;;;;3.58;2.40;;;13.00;85.60;;;;;;5412757;26;20006;-67
2024/04/25 10:23:09;;;;;;;3.55;2.78;;;12.90;85.60;;;;;;5397795;26;20015;-67
2024/04/25 10:25:55;;;;;;;5.00;3.40;;;12.90;85.00;;;;;;5411611;26;19999;-68
2024/04/25 10:28:41;;;;;;;3.65;2.85;;;12.80;85.10;;;;;;5402751;26;20438;-67
2024/04/25 10:31:37;;;;;;;3.42;2.50;;;12.80;84.90;;;;;;5398152;26;20006;-67
2024/04/25 10:34:23;;;;;;;3.50;2.67;;;12.80;84.90;;;;;;5401595;26;20452;-67
2024/04/25 10:37:09;;;;;;;3.72;2.78;;;12.80;85.10;;;;;;5415658;26;20000;-67
2024/04/25 10:40:01;;;;;;;3.45;2.47;;;12.90;85.20;;;;;;5416464;26;20006;-69
2024/04/25 10:42:58;;;;;;;3.30;2.10;;;12.90;84.90;;;;;;5429163;26;20003;-69
2024/04/25 10:45:44;;;;;;;2.40;1.77;;;13.00;84.50;;;;;;5425765;26;20447;-69
2024/04/25 10:48:30;;;;;;;2.20;1.65;;;13.10;84.10;;;;;;5376874;26;20003;-69
2024/04/25 10:51:16;;;;;;;2.50;1.75;;;13.10;83.40;;;;;;5412941;26;19995;-69
2024/04/25 10:54:02;;;;;;;2.80;1.70;;;13.10;83.20;;;;;;5405919;26;20003;-69
2024/04/25 10:56:49;;;;;;;2.88;1.90;;;13.20;83.10;;;;;;5405751;26;20452;-69
2024/04/25 10:59:35;;;;;;;2.30;1.55;;;13.30;82.60;;;;;;5418602;26;20006;-70
2024/04/25 11:02:21;;;;;;;3.03;1.45;;;13.30;82.10;;;;;;5412594;26;20048;-69
2024/04/25 11:05:07;;;;;;;3.13;1.95;;;13.30;81.80;;;;;;5405029;26;20004;-69
2024/04/25 11:07:54;;;;;;;1.88;1.55;;;13.30;81.30;;;;;;5413489;26;19999;-70
2024/04/25 11:10:40;;;;;;;2.20;1.60;;;13.40;80.80;;;;;;5369517;26;19996;-69
2024/04/25 11:13:26;;;;;;;5.10;3.42;;;13.40;80.70;;;;;;5430790;26;20338;-69
2024/04/25 11:16:12;;;;;;;3.85;2.90;;;13.30;80.50;;;;;;5432786;26;20006;-69
2024/04/25 11:19:00;;;;;;;4.88;3.60;;;13.20;80.40;;;;;;5415887;26;20018;-69
2024/04/25 11:21:47;;;;;;;9.88;3.38;;;13.10;80.60;;;;;;5405065;26;20002;-69
2024/04/25 11:24:33;;;;;;;4.30;3.13;;;12.90;80.50;;;;;;5406943;26;20019;-69
2024/04/25 11:27:19;;;;;;;5.47;3.80;;;12.90;80.70;;;;;;5413225;26;19991;-69
2024/04/25 11:30:06;;;;;;;6.47;3.65;;;12.80;80.80;;;;;;5411855;26;20012;-69
2024/04/25 11:32:52;;;;;;;4.68;3.33;;;12.80;81.00;;;;;;5409875;26;20026;-68
2024/04/25 11:35:44;;;;;;;5.82;4.10;;;12.80;81.20;;;;;;5412127;26;20042;-69
2024/04/25 11:38:30;;;;;;;5.20;3.60;;;12.90;81.10;;;;;;5418007;26;20351;-68
2024/04/25 11:41:16;;;;;;;5.47;3.70;;;12.90;81.20;;;;;;5423288;26;20007;-69
2024/04/25 11:44:02;;;;;;;5.75;3.55;;;13.00;81.30;;;;;;5419468;26;20000;-69
2024/04/25 11:46:48;;;;;;;6.30;3.63;;;13.00;81.10;;;;;;5428027;26;20005;-69
2024/04/25 11:49:34;;;;;;;4.68;3.70;;;13.00;81.10;;;;;;5437055;26;20000;-69
2024/04/25 11:52:20;;;;;;;4.65;3.30;;;13.00;81.10;;;;;;5414121;26;20507;-69
2024/04/25 11:55:06;;;;;;;4.53;3.03;;;13.10;81.20;;;;;;5422833;26;20031;-69
2024/04/25 11:57:52;;;;;;;5.40;2.60;;;13.20;81.30;;;;;;5430833;26;20004;-70
2024/04/25 12:00:38;;;;;;;3.45;2.50;;;13.30;81.50;;;;;;5380390;26;20004;-69
2024/04/25 12:03:24;;;;;;;3.80;2.67;;;13.40;81.20;;;;;;5421629;26;20446;-69
2024/04/25 12:06:10;;;;;;;4.68;2.85;;;13.50;80.70;;;;;;5413477;26;20003;-69
2024/04/25 12:08:56;;;;;;;3.60;2.65;;;13.50;80.30;;;;;;5409282;26;19992;-70
2024/04/25 12:11:42;;;;;;;5.10;2.55;;;13.50;79.90;;;;;;5394278;26;20330;-68
2024/04/25 12:14:28;;;;;;;3.30;2.42;;;13.50;79.40;;;;;;5413533;26;20327;-69
2024/04/25 12:17:14;;;;;;;3.08;2.15;;;13.50;79.10;;;;;;5412875;26;20513;-69
2024/04/25 12:20:02;;;;;;;3.80;2.67;;;13.50;78.90;;;;;;5414498;26;20035;-68
2024/04/25 12:22:48;;;;;;;3.45;2.60;;;13.50;78.80;;;;;;5418688;26;20045;-69
2024/04/25 12:25:34;;;;;;;4.50;2.47;;;13.50;78.80;;;;;;5381074;26;20085;-68
2024/04/25 12:28:20;;;;;;;3.58;2.40;;;13.50;78.30;;;;;;5414378;26;20003;-69
2024/04/25 12:31:07;;;;;;;4.38;2.72;;;13.50;78.10;;;;;;5408511;26;20000;-70
2024/04/25 12:33:55;;;;;;;3.47;2.40;;;13.50;77.60;;;;;;5409716;26;20069;-69
2024/04/25 12:36:40;;;;;;;3.92;3.00;;;13.60;76.90;;;;;;5401679;26;20015;-69
2024/04/25 12:39:26;;;;;;;3.47;2.55;;;13.60;76.30;;;;;;5444344;26;20456;-69
2024/04/25 12:42:12;;;;;;;3.00;2.20;;;13.70;76.20;;;;;;5446605;26;20013;-69
2024/04/25 12:44:58;;;;;;;5.15;3.80;;;13.70;76.00;;;;;;5441857;26;20320;-70
2024/04/25 12:47:44;;;;;;;4.70;3.55;;;13.70;76.10;;;;;;5432935;26;20389;-69
2024/04/25 12:50:30;;;;;;;3.78;2.40;;;13.70;76.40;;;;;;5445027;26;20081;-69
2024/04/25 12:53:16;;;;;;;3.78;2.50;;;13.70;76.70;;;;;;5390789;26;20048;-69
2024/04/25 12:56:03;;;;;;;3.67;2.58;;;13.80;76.70;;;;;;5406420;26;20007;-69
2024/04/25 12:58:49;;;;;;;3.40;2.45;;;13.90;76.20;;;;;;5419838;26;20008;-68
2024/04/25 13:01:35;;;;;;;3.17;2.38;;;13.90;75.80;;;;;;5413023;26;20007;-68
2024/04/25 13:04:23;;;;;;;2.28;1.83;;;14.00;75.80;;;;;;5412890;26;20015;-71
2024/04/25 13:07:09;;;;;;;2.55;1.92;;;14.10;75.60;;;;;;5400329;26;20332;-68
2024/04/25 13:09:55;;;;;;;3.30;1.80;;;14.10;75.30;;;;;;5397930;26;20011;-68
2024/04/25 13:12:41;;;;;;;3.00;2.20;;;14.20;74.90;;;;;;5412763;26;20000;-70
2024/04/25 13:15:27;;;;;;;3.63;2.30;;;14.20;74.60;;;;;;5435592;26;19995;-68
2024/04/25 13:18:16;;;;;;;3.83;2.50;;;14.30;74.40;;;;;;5425251;26;19991;-67
2024/04/25 13:21:02;;;;;;;4.63;3.00;;;14.50;74.50;;;;;;5413769;26;19999;-68
2024/04/25 13:23:48;;;;;;;3.38;2.17;;;14.60;74.40;;;;;;5379162;26;20000;-68
2024/04/25 13:26:34;;;;;;;6.60;3.08;;;14.70;74.00;;;;;;5403435;26;20068;-67
2024/04/25 13:29:20;;;;;;;3.45;2.30;;;14.80;73.80;;;;;;5423970;26;20000;-67
2024/04/25 13:32:06;;;;;;;3.97;2.40;;;14.80;73.60;;;;;;5428294;26;20401;-67
2024/04/25 13:34:54;;;;;;;5.65;3.00;;;14.90;73.70;;;;;;5412508;26;20019;-67
2024/04/25 13:37:40;;;;;;;3.10;2.10;;;14.90;74.10;;;;;;5411594;26;20040;-68
2024/04/25 13:40:26;;;;;;;1.63;1.25;;;14.90;73.60;;;;;;5443164;26;19999;-68
2024/04/25 13:43:13;;;;;;;1.13;0.88;;;14.90;73.30;;;;;;5414093;26;20009;-68
2024/04/25 13:45:59;;;;;;;2.85;1.25;;;14.90;72.90;;;;;;5404128;26;20006;-70
2024/04/25 13:48:45;;;;;;;2.08;1.40;;;14.70;72.20;;;;;;5399995;26;20319;-69
2024/04/25 13:51:33;;;;;;;1.33;1.20;;;14.70;72.00;;;;;;5403274;26;20434;-69
2024/04/25 13:54:20;;;;;;;1.48;1.10;;;14.60;71.80;;;;;;5412646;26;20462;-67
2024/04/25 13:57:06;;;;;;;1.48;1.10;;;14.60;71.50;;;;;;5410582;26;20007;-68
2024/04/25 13:59:52;;;;;;;1.40;1.27;;;14.50;71.40;;;;;;5403465;26;20012;-69
2024/04/25 14:02:38;;;;;;;2.38;1.30;;;14.40;71.50;;;;;;5393791;26;19995;-69
2024/04/25 14:05:24;;;;;;;3.50;1.40;;;14.40;71.50;;;;;;5421222;26;20011;-69
2024/04/25 14:08:10;;;;;;;1.83;1.23;;;14.30;71.60;;;;;;5412924;26;19992;-69
2024/04/25 14:10:56;;;;;;;4.93;1.42;;;14.30;71.90;;;;;;5412578;26;20000;-69
2024/04/25 14:13:42;;;;;;;1.77;1.27;;;14.30;71.90;;;;;;5410472;26;19999;-69
2024/04/25 14:16:28;;;;;;;2.00;1.50;;;14.30;71.90;;;;;;5383557;26;20003;-69
2024/04/25 14:19:14;;;;;;;2.70;1.90;;;14.30;71.90;;;;;;5404628;26;19992;-69
2024/04/25 14:22:00;;;;;;;2.72;1.75;;;14.20;71.50;;;;;;5406346;26;20332;-69
2024/04/25 14:24:52;;;;;;;2.22;1.80;;;14.20;71.40;;;;;;5411769;26;20016;-69
2024/04/25 14:30:42;;;;;;;4.70;2.17;;;14.10;72.70;;;;;;5417669;26;20006;-70